sensor_id;sensor_type;location;lat;lon;timestamp;pressure;altitude;pressure_sealevel;temperature;humidity
21401;BME280;18038;50.166;18.908;2022-08-14T00:02:28;97688.50;;;17.18;77.98
21401;BME280;18038;50.166;18.908;2022-08-14T00:05:37;97685.41;;;17.10;78.07
21401;BME280;18038;50.166;18.908;2022-08-14T00:08:45;97686.47;;;17.09;77.94
21401;BME280;18038;50.166;18.908;2022-08-14T00:11:52;97683.44;;;17.05;77.84
21401;BME280;18038;50.166;18.908;2022-08-14T00:15:23;97687.94;;;16.99;78.23
21401;BME280;18038;50.166;18.908;2022-08-14T00:18:47;97688.84;;;17.05;78.18
21401;BME280;18038;50.166;18.908;2022-08-14T00:22:12;97684.81;;;17.08;78.08
21401;BME280;18038;50.166;18.908;2022-08-14T00:25:52;97682.94;;;17.08;77.73
21401;BME280;18038;50.166;18.908;2022-08-14T00:29:09;97684.75;;;17.03;78.55
21401;BME280;18038;50.166;18.908;2022-08-14T00:32:18;97675.84;;;17.02;78.32
21401;BME280;18038;50.166;18.908;2022-08-14T00:35:44;97663.75;;;17.05;77.91
21401;BME280;18038;50.166;18.908;2022-08-14T00:39:12;97663.59;;;17.11;77.57
21401;BME280;18038;50.166;18.908;2022-08-14T00:42:23;97663.81;;;17.10;77.30
21401;BME280;18038;50.166;18.908;2022-08-14T00:45:51;97647.13;;;17.13;77.21
21401;BME280;18038;50.166;18.908;2022-08-14T00:49:00;97654.72;;;17.16;77.14
21401;BME280;18038;50.166;18.908;2022-08-14T00:52:16;97653.50;;;17.24;76.92
21401;BME280;18038;50.166;18.908;2022-08-14T00:55:24;97647.28;;;17.23;77.14
21401;BME280;18038;50.166;18.908;2022-08-14T00:58:32;97639.94;;;17.18;77.08
21401;BME280;18038;50.166;18.908;2022-08-14T01:01:46;97640.75;;;17.19;76.91
21401;BME280;18038;50.166;18.908;2022-08-14T01:04:58;97640.94;;;17.12;76.77
21401;BME280;18038;50.166;18.908;2022-08-14T01:08:06;97643.03;;;17.10;77.58
21401;BME280;18038;50.166;18.908;2022-08-14T01:11:33;97647.13;;;17.13;76.97
21401;BME280;18038;50.166;18.908;2022-08-14T01:14:46;97638.81;;;17.14;76.72
21401;BME280;18038;50.166;18.908;2022-08-14T01:17:59;97630.72;;;17.14;77.14
21401;BME280;18038;50.166;18.908;2022-08-14T01:21:24;97630.94;;;17.13;76.60
21401;BME280;18038;50.166;18.908;2022-08-14T01:24:40;97632.50;;;17.09;76.94
21401;BME280;18038;50.166;18.908;2022-08-14T01:27:49;97639.06;;;16.96;77.36
21401;BME280;18038;50.166;18.908;2022-08-14T01:30:59;97634.88;;;16.88;78.14
21401;BME280;18038;50.166;18.908;2022-08-14T01:34:09;97629.22;;;16.90;77.87
21401;BME280;18038;50.166;18.908;2022-08-14T01:37:42;97623.69;;;16.80;78.42
21401;BME280;18038;50.166;18.908;2022-08-14T01:40:59;97620.00;;;16.86;78.10
21401;BME280;18038;50.166;18.908;2022-08-14T01:44:17;97620.50;;;16.83;77.82
21401;BME280;18038;50.166;18.908;2022-08-14T01:47:35;97632.59;;;16.80;77.93
21401;BME280;18038;50.166;18.908;2022-08-14T01:50:41;97633.41;;;16.81;78.49
21401;BME280;18038;50.166;18.908;2022-08-14T01:53:52;97626.22;;;16.86;77.54
21401;BME280;18038;50.166;18.908;2022-08-14T01:57:07;97628.19;;;16.91;77.43
21401;BME280;18038;50.166;18.908;2022-08-14T02:00:13;97626.38;;;16.96;77.60
21401;BME280;18038;50.166;18.908;2022-08-14T02:03:24;97623.19;;;16.99;77.14
21401;BME280;18038;50.166;18.908;2022-08-14T02:06:32;97628.34;;;17.01;76.99
21401;BME280;18038;50.166;18.908;2022-08-14T02:09:42;97624.00;;;17.00;76.98
21401;BME280;18038;50.166;18.908;2022-08-14T02:12:57;97623.03;;;17.06;76.88
21401;BME280;18038;50.166;18.908;2022-08-14T02:16:08;97628.94;;;17.03;77.10
21401;BME280;18038;50.166;18.908;2022-08-14T02:19:27;97625.72;;;17.06;76.60
21401;BME280;18038;50.166;18.908;2022-08-14T02:22:37;97616.75;;;17.01;77.08
21401;BME280;18038;50.166;18.908;2022-08-14T02:25:52;97620.91;;;16.91;77.10
21401;BME280;18038;50.166;18.908;2022-08-14T02:29:27;97609.63;;;16.94;77.27
21401;BME280;18038;50.166;18.908;2022-08-14T02:32:54;97616.31;;;16.92;77.25
21401;BME280;18038;50.166;18.908;2022-08-14T02:36:08;97620.19;;;16.96;76.38
21401;BME280;18038;50.166;18.908;2022-08-14T02:39:37;97607.34;;;16.86;77.53
21401;BME280;18038;50.166;18.908;2022-08-14T02:42:55;97607.41;;;16.91;76.78
21401;BME280;18038;50.166;18.908;2022-08-14T02:46:06;97610.03;;;16.86;77.21
21401;BME280;18038;50.166;18.908;2022-08-14T02:49:14;97606.28;;;16.87;77.22
21401;BME280;18038;50.166;18.908;2022-08-14T02:52:26;97602.53;;;16.88;77.13
21401;BME280;18038;50.166;18.908;2022-08-14T02:55:55;97613.63;;;16.92;76.95
21401;BME280;18038;50.166;18.908;2022-08-14T02:59:17;97614.94;;;16.89;76.92
21401;BME280;18038;50.166;18.908;2022-08-14T03:02:30;97607.91;;;16.88;76.99
21401;BME280;18038;50.166;18.908;2022-08-14T03:05:56;97613.03;;;16.90;76.88
21401;BME280;18038;50.166;18.908;2022-08-14T03:09:10;97613.31;;;16.88;76.64
21401;BME280;18038;50.166;18.908;2022-08-14T03:12:16;97612.31;;;16.94;76.60
21401;BME280;18038;50.166;18.908;2022-08-14T03:15:36;97608.81;;;16.94;76.58
21401;BME280;18038;50.166;18.908;2022-08-14T03:18:46;97597.44;;;16.92;76.46
21401;BME280;18038;50.166;18.908;2022-08-14T03:21:55;97606.50;;;17.03;76.33
21401;BME280;18038;50.166;18.908;2022-08-14T03:25:05;97596.47;;;16.98;76.22
21401;BME280;18038;50.166;18.908;2022-08-14T03:28:13;97603.81;;;17.03;76.57
21401;BME280;18038;50.166;18.908;2022-08-14T03:31:36;97593.19;;;16.96;76.37
21401;BME280;18038;50.166;18.908;2022-08-14T03:34:47;97600.78;;;16.99;76.12
21401;BME280;18038;50.166;18.908;2022-08-14T03:38:04;97600.47;;;16.95;76.86
21401;BME280;18038;50.166;18.908;2022-08-14T03:41:32;97592.84;;;16.92;76.65
21401;BME280;18038;50.166;18.908;2022-08-14T03:44:39;97609.53;;;16.89;76.42
21401;BME280;18038;50.166;18.908;2022-08-14T03:48:15;97605.63;;;16.80;76.73
21401;BME280;18038;50.166;18.908;2022-08-14T03:51:34;97602.03;;;16.74;77.19
21401;BME280;18038;50.166;18.908;2022-08-14T03:54:41;97596.47;;;16.81;76.91
21401;BME280;18038;50.166;18.908;2022-08-14T03:57:53;97595.66;;;16.81;76.94
21401;BME280;18038;50.166;18.908;2022-08-14T04:01:04;97597.19;;;16.76;77.12
21401;BME280;18038;50.166;18.908;2022-08-14T04:04:21;97601.19;;;16.74;77.27
21401;BME280;18038;50.166;18.908;2022-08-14T04:07:26;97588.56;;;16.74;76.92
21401;BME280;18038;50.166;18.908;2022-08-14T04:10:37;97590.69;;;16.72;77.30
21401;BME280;18038;50.166;18.908;2022-08-14T04:13:43;97592.09;;;16.63;77.26
21401;BME280;18038;50.166;18.908;2022-08-14T04:16:51;97588.78;;;16.73;77.15
21401;BME280;18038;50.166;18.908;2022-08-14T04:20:00;97594.75;;;16.75;77.31
21401;BME280;18038;50.166;18.908;2022-08-14T04:23:10;97593.78;;;16.81;76.95
21401;BME280;18038;50.166;18.908;2022-08-14T04:26:32;97589.94;;;16.77;76.84
21401;BME280;18038;50.166;18.908;2022-08-14T04:29:50;97583.78;;;16.82;76.83
21401;BME280;18038;50.166;18.908;2022-08-14T04:32:59;97591.34;;;16.80;76.95
21401;BME280;18038;50.166;18.908;2022-08-14T04:36:20;97578.97;;;16.84;77.08
21401;BME280;18038;50.166;18.908;2022-08-14T04:39:28;97579.16;;;16.77;77.35
21401;BME280;18038;50.166;18.908;2022-08-14T04:42:58;97573.44;;;16.73;76.91
21401;BME280;18038;50.166;18.908;2022-08-14T04:46:23;97579.63;;;16.74;77.35
21401;BME280;18038;50.166;18.908;2022-08-14T04:49:49;97572.41;;;16.63;77.90
21401;BME280;18038;50.166;18.908;2022-08-14T04:53:01;97573.81;;;16.65;77.84
21401;BME280;18038;50.166;18.908;2022-08-14T04:56:34;97577.50;;;16.76;77.81
21401;BME280;18038;50.166;18.908;2022-08-14T04:59:46;97584.63;;;16.82;77.79
21401;BME280;18038;50.166;18.908;2022-08-14T05:02:58;97573.97;;;16.92;76.55
21401;BME280;18038;50.166;18.908;2022-08-14T05:06:10;97570.66;;;16.85;77.08
21401;BME280;18038;50.166;18.908;2022-08-14T05:09:39;97569.88;;;16.90;77.02
21401;BME280;18038;50.166;18.908;2022-08-14T05:12:51;97578.25;;;16.88;77.21
21401;BME280;18038;50.166;18.908;2022-08-14T05:16:15;97564.41;;;17.02;76.91
21401;BME280;18038;50.166;18.908;2022-08-14T05:19:30;97569.06;;;17.06;76.48
21401;BME280;18038;50.166;18.908;2022-08-14T05:22:59;97561.13;;;17.16;75.83
21401;BME280;18038;50.166;18.908;2022-08-14T05:26:16;97569.16;;;17.11;76.51
21401;BME280;18038;50.166;18.908;2022-08-14T05:29:22;97575.81;;;17.26;75.92
21401;BME280;18038;50.166;18.908;2022-08-14T05:32:30;97562.94;;;17.33;75.41
21401;BME280;18038;50.166;18.908;2022-08-14T05:35:38;97574.88;;;17.37;74.95
21401;BME280;18038;50.166;18.908;2022-08-14T05:38:47;97575.31;;;17.29;75.68
21401;BME280;18038;50.166;18.908;2022-08-14T05:41:57;97577.25;;;17.33;75.65
21401;BME280;18038;50.166;18.908;2022-08-14T05:45:33;97569.53;;;17.20;75.47
21401;BME280;18038;50.166;18.908;2022-08-14T05:48:38;97576.28;;;17.01;76.17
21401;BME280;18038;50.166;18.908;2022-08-14T05:51:49;97572.75;;;17.00;76.27
21401;BME280;18038;50.166;18.908;2022-08-14T05:55:07;97564.19;;;16.86;76.78
21401;BME280;18038;50.166;18.908;2022-08-14T05:58:17;97567.84;;;16.97;76.36
21401;BME280;18038;50.166;18.908;2022-08-14T06:01:34;97562.13;;;16.93;76.83
21401;BME280;18038;50.166;18.908;2022-08-14T06:04:40;97565.56;;;16.89;77.19
21401;BME280;18038;50.166;18.908;2022-08-14T06:07:50;97562.56;;;16.85;76.90
21401;BME280;18038;50.166;18.908;2022-08-14T06:11:00;97567.06;;;16.80;77.12
21401;BME280;18038;50.166;18.908;2022-08-14T06:14:10;97563.22;;;16.75;77.46
21401;BME280;18038;50.166;18.908;2022-08-14T06:17:25;97560.50;;;16.75;77.78
21401;BME280;18038;50.166;18.908;2022-08-14T06:20:47;97569.41;;;16.93;77.56
21401;BME280;18038;50.166;18.908;2022-08-14T06:23:55;97563.88;;;16.83;76.90
21401;BME280;18038;50.166;18.908;2022-08-14T06:27:24;97558.72;;;16.81;77.61
21401;BME280;18038;50.166;18.908;2022-08-14T06:30:37;97557.78;;;16.92;77.17
21401;BME280;18038;50.166;18.908;2022-08-14T06:33:57;97566.44;;;17.11;77.02
21401;BME280;18038;50.166;18.908;2022-08-14T06:37:41;97561.84;;;17.12;76.41
21401;BME280;18038;50.166;18.908;2022-08-14T06:40:50;97558.66;;;17.15;76.59
21401;BME280;18038;50.166;18.908;2022-08-14T06:43:59;97568.31;;;17.11;76.04
21401;BME280;18038;50.166;18.908;2022-08-14T06:47:10;97558.09;;;17.13;76.20
21401;BME280;18038;50.166;18.908;2022-08-14T06:50:18;97563.56;;;17.18;76.76
21401;BME280;18038;50.166;18.908;2022-08-14T06:53:29;97566.38;;;17.50;75.35
21401;BME280;18038;50.166;18.908;2022-08-14T06:56:34;97565.53;;;17.67;74.50
21401;BME280;18038;50.166;18.908;2022-08-14T06:59:45;97569.84;;;17.90;73.82
21401;BME280;18038;50.166;18.908;2022-08-14T07:03:15;97560.81;;;18.06;73.29
21401;BME280;18038;50.166;18.908;2022-08-14T07:06:38;97565.34;;;18.22;73.42
21401;BME280;18038;50.166;18.908;2022-08-14T07:09:48;97566.44;;;18.26;72.43
21401;BME280;18038;50.166;18.908;2022-08-14T07:12:53;97568.03;;;18.22;72.03
21401;BME280;18038;50.166;18.908;2022-08-14T07:16:12;97564.19;;;18.18;71.89
21401;BME280;18038;50.166;18.908;2022-08-14T07:19:27;97564.16;;;18.13;72.13
21401;BME280;18038;50.166;18.908;2022-08-14T07:22:32;97561.50;;;18.18;72.20
21401;BME280;18038;50.166;18.908;2022-08-14T07:26:00;97557.66;;;18.14;72.51
21401;BME280;18038;50.166;18.908;2022-08-14T07:29:14;97556.69;;;17.98;72.75
21401;BME280;18038;50.166;18.908;2022-08-14T07:32:27;97560.03;;;18.05;73.32
21401;BME280;18038;50.166;18.908;2022-08-14T07:35:39;97552.94;;;17.99;73.96
21401;BME280;18038;50.166;18.908;2022-08-14T07:39:00;97556.00;;;18.08;73.67
21401;BME280;18038;50.166;18.908;2022-08-14T07:42:20;97554.66;;;18.11;73.86
21401;BME280;18038;50.166;18.908;2022-08-14T07:45:28;97560.47;;;18.24;72.82
21401;BME280;18038;50.166;18.908;2022-08-14T07:48:39;97554.25;;;18.24;72.78
21401;BME280;18038;50.166;18.908;2022-08-14T07:51:51;97554.88;;;18.31;73.08
21401;BME280;18038;50.166;18.908;2022-08-14T07:55:00;97564.03;;;18.30;72.84
21401;BME280;18038;50.166;18.908;2022-08-14T07:58:06;97562.19;;;18.08;72.40
21401;BME280;18038;50.166;18.908;2022-08-14T08:01:48;97566.66;;;18.20;72.69
21401;BME280;18038;50.166;18.908;2022-08-14T08:05:00;97559.78;;;18.07;72.79
21401;BME280;18038;50.166;18.908;2022-08-14T08:08:15;97561.50;;;18.18;72.57
21401;BME280;18038;50.166;18.908;2022-08-14T08:11:31;97555.56;;;18.21;72.07
21401;BME280;18038;50.166;18.908;2022-08-14T08:14:40;97557.25;;;18.27;72.38
21401;BME280;18038;50.166;18.908;2022-08-14T08:18:10;97556.41;;;18.49;71.66
21401;BME280;18038;50.166;18.908;2022-08-14T08:21:29;97555.16;;;18.67;71.77
21401;BME280;18038;50.166;18.908;2022-08-14T08:24:39;97539.81;;;18.72;70.91
21401;BME280;18038;50.166;18.908;2022-08-14T08:27:57;97539.47;;;19.06;70.99
21401;BME280;18038;50.166;18.908;2022-08-14T08:31:26;97539.94;;;19.41;68.73
21401;BME280;18038;50.166;18.908;2022-08-14T08:34:43;97545.19;;;19.68;68.38
21401;BME280;18038;50.166;18.908;2022-08-14T08:37:52;97546.59;;;19.86;67.13
21401;BME280;18038;50.166;18.908;2022-08-14T08:41:18;97532.03;;;20.17;67.98
21401;BME280;18038;50.166;18.908;2022-08-14T08:44:28;97543.16;;;20.00;66.51
21401;BME280;18038;50.166;18.908;2022-08-14T08:47:39;97533.34;;;19.84;67.61
21401;BME280;18038;50.166;18.908;2022-08-14T08:50:47;97542.81;;;19.81;68.98
21401;BME280;18038;50.166;18.908;2022-08-14T08:53:56;97538.94;;;19.67;68.44
21401;BME280;18038;50.166;18.908;2022-08-14T08:57:15;97540.75;;;19.41;70.19
21401;BME280;18038;50.166;18.908;2022-08-14T09:00:23;97541.97;;;19.18;71.08
21401;BME280;18038;50.166;18.908;2022-08-14T09:03:42;97540.56;;;19.05;71.14
21401;BME280;18038;50.166;18.908;2022-08-14T09:06:52;97542.94;;;18.97;72.43
21401;BME280;18038;50.166;18.908;2022-08-14T09:10:21;97545.34;;;18.93;71.93
21401;BME280;18038;50.166;18.908;2022-08-14T09:13:56;97541.16;;;18.70;72.61
21401;BME280;18038;50.166;18.908;2022-08-14T09:17:13;97538.00;;;18.51;73.91
21401;BME280;18038;50.166;18.908;2022-08-14T09:20:20;97538.53;;;18.48;74.70
21401;BME280;18038;50.166;18.908;2022-08-14T09:23:32;97542.00;;;18.38;73.82
21401;BME280;18038;50.166;18.908;2022-08-14T09:26:58;97540.19;;;18.49;74.60
21401;BME280;18038;50.166;18.908;2022-08-14T09:30:11;97532.09;;;18.54;74.36
21401;BME280;18038;50.166;18.908;2022-08-14T09:37:38;97528.69;;;18.37;75.53
21401;BME280;18038;50.166;18.908;2022-08-14T09:41:09;97529.50;;;18.69;74.52
21401;BME280;18038;50.166;18.908;2022-08-14T09:45:07;97532.97;;;18.60;75.28
21401;BME280;18038;50.166;18.908;2022-08-14T09:48:22;97524.00;;;18.59;74.00
21401;BME280;18038;50.166;18.908;2022-08-14T09:51:36;97530.25;;;18.60;74.37
21401;BME280;18038;50.166;18.908;2022-08-14T09:55:00;97530.94;;;18.82;73.61
21401;BME280;18038;50.166;18.908;2022-08-14T09:58:11;97526.47;;;19.03;72.79
21401;BME280;18038;50.166;18.908;2022-08-14T10:01:37;97523.59;;;19.20;72.73
21401;BME280;18038;50.166;18.908;2022-08-14T10:04:44;97528.84;;;19.42;70.87
21401;BME280;18038;50.166;18.908;2022-08-14T10:07:51;97521.91;;;19.77;70.19
21401;BME280;18038;50.166;18.908;2022-08-14T10:11:00;97527.03;;;19.58;69.20
21401;BME280;18038;50.166;18.908;2022-08-14T10:14:28;97523.56;;;19.88;68.28
21401;BME280;18038;50.166;18.908;2022-08-14T10:17:40;97525.84;;;20.32;68.63
21401;BME280;18038;50.166;18.908;2022-08-14T10:20:53;97515.50;;;20.65;67.50
21401;BME280;18038;50.166;18.908;2022-08-14T10:24:09;97516.28;;;21.06;65.70
21401;BME280;18038;50.166;18.908;2022-08-14T10:27:39;97520.28;;;21.29;64.00
21401;BME280;18038;50.166;18.908;2022-08-14T10:30:50;97511.88;;;21.86;61.05
21401;BME280;18038;50.166;18.908;2022-08-14T10:34:04;97513.69;;;22.00;60.81
21401;BME280;18038;50.166;18.908;2022-08-14T10:37:16;97517.59;;;22.29;60.68
21401;BME280;18038;50.166;18.908;2022-08-14T10:40:30;97517.47;;;22.44;60.96
21401;BME280;18038;50.166;18.908;2022-08-14T10:44:08;97518.38;;;22.34;58.85
21401;BME280;18038;50.166;18.908;2022-08-14T10:47:33;97519.81;;;22.21;60.01
21401;BME280;18038;50.166;18.908;2022-08-14T10:51:03;97517.19;;;22.45;59.16
21401;BME280;18038;50.166;18.908;2022-08-14T10:54:10;97516.34;;;22.79;59.01
21401;BME280;18038;50.166;18.908;2022-08-14T10:57:47;97509.72;;;22.91;56.91
21401;BME280;18038;50.166;18.908;2022-08-14T11:00:57;97511.88;;;23.66;56.21
21401;BME280;18038;50.166;18.908;2022-08-14T11:04:19;97508.19;;;24.32;53.75
21401;BME280;18038;50.166;18.908;2022-08-14T11:07:35;97499.25;;;24.46;52.72
21401;BME280;18038;50.166;18.908;2022-08-14T11:10:46;97519.16;;;24.46;51.65
21401;BME280;18038;50.166;18.908;2022-08-14T11:13:55;97516.59;;;24.17;53.30
21401;BME280;18038;50.166;18.908;2022-08-14T11:17:01;97516.13;;;24.48;52.25
21401;BME280;18038;50.166;18.908;2022-08-14T11:20:11;97517.41;;;23.98;52.22
21401;BME280;18038;50.166;18.908;2022-08-14T11:23:27;97509.31;;;24.31;52.50
21401;BME280;18038;50.166;18.908;2022-08-14T11:26:44;97505.84;;;23.21;54.18
21401;BME280;18038;50.166;18.908;2022-08-14T11:29:53;97503.50;;;24.19;52.50
21401;BME280;18038;50.166;18.908;2022-08-14T11:33:27;97505.69;;;23.79;52.83
21401;BME280;18038;50.166;18.908;2022-08-14T11:36:39;97506.91;;;24.76;50.53
21401;BME280;18038;50.166;18.908;2022-08-14T11:40:18;97504.59;;;25.80;47.01
21401;BME280;18038;50.166;18.908;2022-08-14T11:43:30;97497.47;;;25.57;47.47
21401;BME280;18038;50.166;18.908;2022-08-14T11:46:42;97500.69;;;25.73;47.85
21401;BME280;18038;50.166;18.908;2022-08-14T11:49:48;97502.63;;;26.76;44.55
21401;BME280;18038;50.166;18.908;2022-08-14T11:52:56;97501.03;;;26.75;43.82
21401;BME280;18038;50.166;18.908;2022-08-14T11:56:08;97496.72;;;26.60;43.91
21401;BME280;18038;50.166;18.908;2022-08-14T11:59:16;97495.34;;;26.49;44.75
21401;BME280;18038;50.166;18.908;2022-08-14T12:02:35;97486.41;;;24.93;48.08
21401;BME280;18038;50.166;18.908;2022-08-14T12:06:04;97494.84;;;23.55;51.46
21401;BME280;18038;50.166;18.908;2022-08-14T12:09:34;97490.72;;;23.58;51.20
21401;BME280;18038;50.166;18.908;2022-08-14T12:13:09;97486.75;;;23.69;51.31
21401;BME280;18038;50.166;18.908;2022-08-14T12:16:18;97492.84;;;23.61;51.26
21401;BME280;18038;50.166;18.908;2022-08-14T12:19:27;97480.50;;;23.44;51.54
21401;BME280;18038;50.166;18.908;2022-08-14T12:22:37;97482.63;;;23.47;50.43
21401;BME280;18038;50.166;18.908;2022-08-14T12:25:49;97483.50;;;23.67;49.75
21401;BME280;18038;50.166;18.908;2022-08-14T12:29:32;97469.97;;;24.32;50.56
21401;BME280;18038;50.166;18.908;2022-08-14T12:32:43;97480.56;;;24.53;49.07
21401;BME280;18038;50.166;18.908;2022-08-14T12:35:49;97482.97;;;25.15;47.49
21401;BME280;18038;50.166;18.908;2022-08-14T12:39:00;97490.06;;;25.30;47.28
21401;BME280;18038;50.166;18.908;2022-08-14T12:42:14;97482.28;;;25.23;46.75
21401;BME280;18038;50.166;18.908;2022-08-14T12:45:46;97480.13;;;24.46;48.09
21401;BME280;18038;50.166;18.908;2022-08-14T12:48:58;97483.50;;;24.56;47.56
21401;BME280;18038;50.166;18.908;2022-08-14T12:52:10;97484.81;;;25.05;47.25
21401;BME280;18038;50.166;18.908;2022-08-14T12:55:18;97479.97;;;25.16;47.48
21401;BME280;18038;50.166;18.908;2022-08-14T12:58:49;97467.78;;;24.81;48.34
21401;BME280;18038;50.166;18.908;2022-08-14T13:02:03;97474.69;;;24.59;48.84
21401;BME280;18038;50.166;18.908;2022-08-14T13:05:24;97472.19;;;24.63;49.12
21401;BME280;18038;50.166;18.908;2022-08-14T13:08:48;97468.88;;;24.33;50.17
21401;BME280;18038;50.166;18.908;2022-08-14T13:12:09;97466.13;;;23.63;51.44
21401;BME280;18038;50.166;18.908;2022-08-14T13:15:37;97455.50;;;23.80;51.17
21401;BME280;18038;50.166;18.908;2022-08-14T13:18:48;97453.53;;;24.37;50.74
21401;BME280;18038;50.166;18.908;2022-08-14T13:21:59;97442.88;;;24.69;50.13
21401;BME280;18038;50.166;18.908;2022-08-14T13:25:26;97445.84;;;24.39;48.47
21401;BME280;18038;50.166;18.908;2022-08-14T13:28:39;97443.03;;;24.45;49.50
21401;BME280;18038;50.166;18.908;2022-08-14T13:32:06;97437.53;;;24.31;48.75
21401;BME280;18038;50.166;18.908;2022-08-14T13:35:17;97435.25;;;23.43;50.13
21401;BME280;18038;50.166;18.908;2022-08-14T13:38:27;97435.63;;;23.18;51.52
21401;BME280;18038;50.166;18.908;2022-08-14T13:41:33;97426.06;;;23.20;52.21
21401;BME280;18038;50.166;18.908;2022-08-14T13:44:40;97423.41;;;23.34;53.08
21401;BME280;18038;50.166;18.908;2022-08-14T13:47:47;97416.97;;;23.25;52.77
21401;BME280;18038;50.166;18.908;2022-08-14T13:50:58;97412.31;;;23.30;51.81
21401;BME280;18038;50.166;18.908;2022-08-14T13:54:19;97401.34;;;23.12;52.84
21401;BME280;18038;50.166;18.908;2022-08-14T13:57:35;97398.38;;;23.32;52.06
21401;BME280;18038;50.166;18.908;2022-08-14T14:00:51;97385.94;;;23.64;51.33
21401;BME280;18038;50.166;18.908;2022-08-14T14:04:03;97391.44;;;23.21;52.00
21401;BME280;18038;50.166;18.908;2022-08-14T14:07:23;97381.78;;;23.85;50.98
21401;BME280;18038;50.166;18.908;2022-08-14T14:10:35;97381.38;;;24.11;49.84
21401;BME280;18038;50.166;18.908;2022-08-14T14:13:47;97386.69;;;24.21;50.03
21401;BME280;18038;50.166;18.908;2022-08-14T14:16:55;97381.06;;;23.23;51.47
21401;BME280;18038;50.166;18.908;2022-08-14T14:20:19;97371.72;;;23.67;50.85
21401;BME280;18038;50.166;18.908;2022-08-14T14:23:41;97369.44;;;24.07;50.67
21401;BME280;18038;50.166;18.908;2022-08-14T14:26:48;97373.25;;;24.25;49.65
21401;BME280;18038;50.166;18.908;2022-08-14T14:29:57;97367.75;;;23.78;50.23
21401;BME280;18038;50.166;18.908;2022-08-14T14:33:24;97366.69;;;24.07;49.59
21401;BME280;18038;50.166;18.908;2022-08-14T14:36:50;97364.81;;;23.88;50.76
21401;BME280;18038;50.166;18.908;2022-08-14T14:40:00;97375.75;;;23.88;50.16
21401;BME280;18038;50.166;18.908;2022-08-14T14:43:28;97366.34;;;23.62;50.97
21401;BME280;18038;50.166;18.908;2022-08-14T14:46:42;97374.50;;;23.05;51.97
21401;BME280;18038;50.166;18.908;2022-08-14T14:49:52;97367.38;;;23.28;51.84
21401;BME280;18038;50.166;18.908;2022-08-14T14:53:00;97368.25;;;23.80;51.17
21401;BME280;18038;50.166;18.908;2022-08-14T14:56:18;97368.53;;;24.11;50.60
21401;BME280;18038;50.166;18.908;2022-08-14T14:59:46;97372.50;;;23.48;51.41
21401;BME280;18038;50.166;18.908;2022-08-14T15:02:53;97379.44;;;23.22;50.64
21401;BME280;18038;50.166;18.908;2022-08-14T15:06:00;97373.09;;;23.45;51.39
21401;BME280;18038;50.166;18.908;2022-08-14T15:09:07;97376.31;;;23.52;51.44
21401;BME280;18038;50.166;18.908;2022-08-14T15:12:22;97372.25;;;23.69;50.95
21401;BME280;18038;50.166;18.908;2022-08-14T15:15:47;97379.09;;;23.99;50.42
21401;BME280;18038;50.166;18.908;2022-08-14T15:18:53;97373.38;;;24.01;50.66
21401;BME280;18038;50.166;18.908;2022-08-14T15:21:59;97378.38;;;23.93;49.82
21401;BME280;18038;50.166;18.908;2022-08-14T15:25:07;97374.78;;;24.12;49.47
21401;BME280;18038;50.166;18.908;2022-08-14T15:28:22;97376.78;;;24.25;48.92
21401;BME280;18038;50.166;18.908;2022-08-14T15:31:28;97375.69;;;24.26;49.28
21401;BME280;18038;50.166;18.908;2022-08-14T15:34:37;97371.72;;;24.18;49.20
21401;BME280;18038;50.166;18.908;2022-08-14T15:37:54;97368.19;;;23.99;49.55
21401;BME280;18038;50.166;18.908;2022-08-14T15:40:59;97357.41;;;23.94;49.69
21401;BME280;18038;50.166;18.908;2022-08-14T15:44:12;97365.34;;;23.90;50.21
21401;BME280;18038;50.166;18.908;2022-08-14T15:47:30;97368.16;;;23.85;50.17
21401;BME280;18038;50.166;18.908;2022-08-14T15:50:44;97376.78;;;23.92;50.65
21401;BME280;18038;50.166;18.908;2022-08-14T15:53:52;97375.34;;;23.81;50.92
21401;BME280;18038;50.166;18.908;2022-08-14T15:56:59;97381.06;;;23.80;51.13
21401;BME280;18038;50.166;18.908;2022-08-14T16:00:13;97381.78;;;23.85;51.45
21401;BME280;18038;50.166;18.908;2022-08-14T16:03:46;97379.06;;;23.85;51.21
21401;BME280;18038;50.166;18.908;2022-08-14T16:06:54;97366.47;;;23.89;51.43
21401;BME280;18038;50.166;18.908;2022-08-14T16:10:00;97365.44;;;23.85;50.86
21401;BME280;18038;50.166;18.908;2022-08-14T16:13:27;97367.06;;;23.67;52.27
21401;BME280;18038;50.166;18.908;2022-08-14T16:16:45;97359.25;;;23.80;51.93
21401;BME280;18038;50.166;18.908;2022-08-14T16:20:04;97349.31;;;23.89;51.74
21401;BME280;18038;50.166;18.908;2022-08-14T16:23:12;97347.13;;;24.05;51.30
21401;BME280;18038;50.166;18.908;2022-08-14T16:26:23;97343.78;;;24.08;51.17
21401;BME280;18038;50.166;18.908;2022-08-14T16:29:37;97350.72;;;24.19;50.55
21401;BME280;18038;50.166;18.908;2022-08-14T16:32:49;97342.13;;;23.93;51.23
21401;BME280;18038;50.166;18.908;2022-08-14T16:35:57;97342.84;;;23.98;50.85
21401;BME280;18038;50.166;18.908;2022-08-14T16:39:24;97344.59;;;24.08;50.54
21401;BME280;18038;50.166;18.908;2022-08-14T16:42:35;97338.19;;;24.18;50.13
21401;BME280;18038;50.166;18.908;2022-08-14T16:46:03;97333.22;;;24.20;50.38
21401;BME280;18038;50.166;18.908;2022-08-14T16:49:14;97332.72;;;24.18;50.07
21401;BME280;18038;50.166;18.908;2022-08-14T16:52:25;97334.03;;;24.21;50.32
21401;BME280;18038;50.166;18.908;2022-08-14T16:56:13;97341.78;;;24.13;50.80
21401;BME280;18038;50.166;18.908;2022-08-14T16:59:25;97344.63;;;24.22;50.48
21401;BME280;18038;50.166;18.908;2022-08-14T17:02:58;97338.84;;;24.10;51.03
21401;BME280;18038;50.166;18.908;2022-08-14T17:06:09;97341.44;;;24.01;51.20
21401;BME280;18038;50.166;18.908;2022-08-14T17:09:36;97345.25;;;23.86;51.40